createdAt,value
2023-04-01T00:01:00.260Z,43.78
2023-04-01T00:02:07.010Z,48.97
2023-04-01T00:03:12.558Z,48.65
2023-04-01T00:04:20.031Z,56.10
2023-04-01T00:05:26.862Z,56.00
2023-04-01T00:06:33.638Z,57.00
2023-04-01T00:07:39.001Z,57.08
2023-04-01T00:08:47.574Z,57.08
2023-04-01T00:09:54.388Z,57.25
2023-04-01T00:11:00.000Z,52.13
2023-04-01T00:12:07.193Z,55.25
2023-04-01T00:13:13.330Z,45.90
2023-04-01T00:14:20.081Z,43.45
2023-04-01T00:15:25.474Z,41.33
2023-04-01T00:16:32.210Z,39.88
2023-04-01T00:17:38.117Z,37.27
2023-04-01T00:18:44.961Z,37.83
2023-04-01T00:19:50.537Z,39.22
2023-04-01T00:20:57.578Z,38.58
2023-04-01T00:22:04.564Z,40.13
2023-04-01T00:23:09.971Z,40.70
2023-04-01T00:24:18.453Z,38.00
2023-04-01T00:25:24.045Z,39.20
2023-04-01T00:26:30.796Z,39.55
2023-04-01T00:27:36.247Z,41.40
2023-04-01T00:28:43.032Z,36.23
2023-04-01T00:29:48.980Z,38.42
2023-04-01T00:30:55.756Z,37.70
2023-04-01T00:32:01.379Z,39.85
2023-04-01T00:33:08.448Z,37.55
2023-04-01T00:34:13.814Z,36.22
2023-04-01T00:35:20.949Z,36.83
2023-04-01T00:36:26.423Z,39.83
2023-04-01T00:37:33.372Z,38.17
2023-04-01T00:38:39.075Z,41.85
2023-04-01T00:39:47.551Z,39.20
2023-04-01T00:40:53.698Z,38.15
2023-04-01T00:42:00.675Z,36.90
2023-04-01T00:43:06.998Z,37.63
2023-04-01T00:44:24.701Z,38.33
2023-04-01T00:45:34.734Z,37.75
2023-04-01T00:46:41.550Z,37.47
2023-04-01T00:47:49.523Z,37.85
2023-04-01T00:49:12.299Z,36.47
2023-04-01T00:50:17.838Z,33.53
2023-04-01T00:51:26.782Z,35.37
2023-04-01T00:52:32.224Z,36.35
2023-04-01T00:53:41.273Z,37.30
2023-04-01T00:54:51.023Z,36.88
2023-04-01T00:56:01.118Z,33.10
2023-04-01T00:57:09.192Z,35.45
2023-04-01T00:58:19.851Z,34.67
2023-04-01T00:59:29.028Z,34.15
2023-04-01T01:00:35.780Z,35.50
2023-04-01T01:01:41.470Z,35.45
2023-04-01T01:02:57.884Z,35.60
2023-04-01T01:04:04.729Z,36.25
2023-04-01T01:05:12.446Z,36.08
2023-04-01T01:06:30.562Z,36.70
2023-04-01T01:07:42.145Z,39.50
2023-04-01T01:09:13.872Z,42.55
2023-04-01T01:10:23.039Z,40.30
2023-04-01T01:11:40.904Z,40.42
2023-04-01T01:12:51.423Z,38.53
2023-04-01T01:14:00.865Z,39.85
2023-04-01T01:15:13.473Z,40.10
2023-04-01T01:16:23.577Z,40.53
2023-04-01T01:17:38.786Z,49.58
2023-04-01T01:18:47.568Z,51.42
2023-04-01T01:20:15.650Z,56.90
2023-04-01T01:21:52.807Z,52.08
2023-04-01T01:23:18.579Z,50.20
2023-04-01T01:24:58.327Z,62.42
2023-04-01T01:26:17.789Z,62.03
2023-04-01T01:27:25.361Z,56.85
2023-04-01T01:28:39.575Z,61.87
2023-04-01T01:29:59.122Z,65.13
2023-04-01T01:31:10.907Z,66.15
2023-04-01T01:32:27.391Z,65.30
2023-04-01T01:33:53.628Z,74.75
2023-04-01T01:35:11.218Z,72.63
2023-04-01T01:36:19.030Z,88.57
2023-04-01T01:37:26.893Z,81.78
2023-04-01T01:38:36.960Z,80.70
2023-04-01T01:39:43.592Z,86.15
2023-04-01T01:40:54.301Z,74.77
2023-04-01T01:42:00.900Z,79.03
2023-04-01T01:43:10.950Z,71.68
2023-04-01T01:44:19.607Z,74.85
2023-04-01T01:45:28.581Z,70.75
2023-04-01T01:46:35.022Z,77.43
2023-04-01T01:47:42.318Z,76.57
2023-04-01T01:48:48.497Z,75.35
2023-04-01T01:49:56.665Z,67.07
2023-04-01T01:51:03.894Z,79.40
2023-04-01T01:52:10.533Z,78.73
2023-04-01T01:53:16.566Z,82.78
2023-04-01T01:54:23.249Z,93.85
2023-04-01T01:55:32.461Z,92.80
2023-04-01T01:56:39.736Z,89.13
2023-04-01T01:57:46.516Z,80.60
2023-04-01T01:58:56.903Z,84.28
2023-04-01T02:00:06.011Z,82.40
2023-04-01T02:01:16.558Z,79.13
2023-04-01T02:02:21.992Z,83.07
2023-04-01T02:03:29.882Z,83.50
2023-04-01T02:04:35.400Z,85.28
2023-04-01T02:05:45.024Z,87.82
2023-04-01T02:06:56.306Z,91.15
2023-04-01T02:08:07.030Z,83.25
2023-04-01T02:09:13.869Z,84.53
2023-04-01T02:10:20.612Z,89.40
2023-04-01T02:11:31.483Z,82.22
2023-04-01T02:12:37.902Z,85.90
2023-04-01T02:13:48.025Z,91.18
2023-04-01T02:14:56.501Z,83.33
2023-04-01T02:16:07.372Z,90.05
2023-04-01T02:17:14.198Z,87.03
2023-04-01T02:18:21.976Z,94.10
2023-04-01T02:19:29.982Z,94.05
2023-04-01T02:20:36.872Z,94.80
2023-04-01T02:21:44.120Z,96.32
2023-04-01T02:22:53.895Z,89.80
2023-04-01T02:24:00.787Z,90.82
2023-04-01T02:25:10.660Z,92.88
2023-04-01T02:26:16.441Z,95.87
2023-04-01T02:27:23.317Z,94.32
2023-04-01T02:28:28.862Z,107.38
2023-04-01T02:29:36.158Z,105.63
2023-04-01T02:30:43.329Z,99.57
2023-04-01T02:31:50.112Z,100.18
2023-04-01T02:32:55.454Z,98.70
2023-04-01T02:34:02.580Z,97.75
2023-04-01T02:35:09.228Z,93.60
2023-04-01T02:36:20.415Z,96.43
2023-04-01T02:37:25.787Z,102.27
2023-04-01T02:38:34.191Z,98.95
2023-04-01T02:39:39.484Z,104.85
2023-04-01T02:40:52.206Z,109.38
2023-04-01T02:41:57.526Z,107.97
2023-04-01T02:43:04.177Z,100.75
2023-04-01T02:44:10.141Z,108.57
2023-04-01T02:45:18.329Z,103.53
2023-04-01T02:46:25.001Z,111.03
2023-04-01T02:47:30.385Z,102.55
2023-04-01T02:48:37.100Z,107.53
2023-04-01T02:49:42.405Z,114.65
2023-04-01T02:50:49.055Z,108.05
2023-04-01T02:51:54.489Z,100.72
2023-04-01T02:53:01.143Z,102.53
2023-04-01T02:54:08.357Z,103.63
2023-04-01T02:55:15.204Z,102.38
2023-04-01T02:56:22.162Z,96.47
2023-04-01T02:57:27.676Z,97.32
2023-04-01T02:58:34.477Z,98.57
2023-04-01T02:59:39.754Z,97.67
2023-04-01T03:00:46.390Z,97.90
2023-04-01T03:01:51.646Z,98.63
2023-04-01T03:02:58.890Z,99.25
2023-04-01T03:04:04.344Z,94.50
2023-04-01T03:05:11.774Z,102.65
2023-04-01T03:06:18.432Z,96.88
2023-04-01T03:07:25.046Z,98.47
2023-04-01T03:08:30.332Z,101.07
2023-04-01T03:09:38.638Z,101.00
2023-04-01T03:10:43.877Z,102.93
2023-04-01T03:11:50.509Z,100.72
2023-04-01T03:12:56.858Z,103.40
2023-04-01T03:14:03.541Z,98.93
2023-04-01T03:15:10.444Z,108.60
2023-04-01T03:16:18.303Z,105.22
2023-04-01T03:17:23.706Z,106.72
2023-04-01T03:18:30.498Z,108.03
2023-04-01T03:19:35.848Z,104.97
2023-04-01T03:20:42.493Z,105.90
2023-04-01T03:21:47.905Z,106.33
2023-04-01T03:22:54.618Z,105.22
2023-04-01T03:24:00.103Z,107.43
2023-04-01T03:25:10.069Z,106.10
2023-04-01T03:26:15.887Z,104.00
2023-04-01T03:27:22.683Z,98.38
2023-04-01T03:28:28.002Z,101.72
2023-04-01T03:29:34.751Z,100.28
2023-04-01T03:30:40.322Z,101.65
2023-04-01T03:31:47.068Z,103.97
2023-04-01T03:32:52.567Z,101.30
2023-04-01T03:33:59.302Z,99.88
2023-04-01T03:35:04.708Z,99.38
2023-04-01T03:36:14.066Z,100.55
2023-04-01T03:37:20.776Z,104.18
2023-04-01T03:38:26.129Z,102.07
2023-04-01T03:39:32.872Z,104.22
2023-04-01T03:40:40.819Z,101.10
2023-04-01T03:41:47.516Z,103.63
2023-04-01T03:42:53.178Z,103.35
2023-04-01T03:43:59.871Z,101.27
2023-04-01T03:45:05.400Z,105.17
2023-04-01T03:46:12.235Z,101.32
2023-04-01T03:47:17.594Z,99.68
2023-04-01T03:48:24.552Z,102.55
2023-04-01T03:49:29.949Z,102.65
2023-04-01T03:50:36.592Z,103.90
2023-04-01T03:51:42.286Z,98.93
2023-04-01T03:52:48.967Z,98.30
2023-04-01T03:53:54.328Z,96.40
2023-04-01T03:55:01.056Z,98.20
2023-04-01T03:56:10.782Z,96.87
2023-04-01T03:57:17.598Z,93.82
2023-04-01T03:58:22.967Z,98.72
2023-04-01T03:59:29.731Z,93.95
2023-04-01T04:00:35.170Z,93.82
2023-04-01T04:01:42.048Z,98.65
2023-04-01T04:02:47.709Z,102.88
2023-04-01T04:03:54.910Z,97.15
2023-04-01T04:05:00.316Z,95.50
2023-04-01T04:06:07.055Z,97.43
2023-04-01T04:07:12.412Z,97.27
2023-04-01T04:08:19.177Z,100.45
2023-04-01T04:09:24.565Z,97.57
2023-04-01T04:10:31.751Z,98.10
2023-04-01T04:11:38.831Z,92.25
2023-04-01T04:12:46.445Z,99.10
2023-04-01T04:13:52.093Z,96.38
2023-04-01T04:14:58.749Z,95.65
2023-04-01T04:16:04.151Z,95.75
2023-04-01T04:17:14.395Z,89.57
2023-04-01T04:18:19.965Z,88.13
2023-04-01T04:19:29.449Z,88.07
2023-04-01T04:20:34.704Z,88.40
2023-04-01T04:21:41.414Z,88.90
2023-04-01T04:22:46.680Z,87.80
2023-04-01T04:23:53.310Z,91.95
2023-04-01T04:24:58.617Z,92.97
2023-04-01T04:26:06.485Z,88.93
2023-04-01T04:27:14.830Z,88.07
2023-04-01T04:28:20.099Z,83.80
2023-04-01T04:29:27.016Z,84.33
2023-04-01T04:30:33.726Z,84.82
2023-04-01T04:31:39.054Z,84.63
2023-04-01T04:32:45.778Z,85.40
2023-04-01T04:33:51.182Z,82.60
2023-04-01T04:34:57.778Z,79.65
2023-04-01T04:36:03.505Z,82.07
2023-04-01T04:37:10.182Z,81.72
2023-04-01T04:38:15.459Z,83.40
2023-04-01T04:39:22.081Z,82.50
2023-04-01T04:40:27.338Z,83.87
2023-04-01T04:41:35.873Z,83.30
2023-04-01T04:42:44.177Z,83.15
2023-04-01T04:43:55.259Z,83.00
2023-04-01T04:45:01.946Z,83.93
2023-04-01T04:46:10.748Z,79.97
2023-04-01T04:47:16.106Z,85.43
2023-04-01T04:48:23.003Z,85.85
2023-04-01T04:49:28.334Z,88.03
2023-04-01T04:50:37.307Z,84.80
2023-04-01T04:51:42.586Z,85.53
2023-04-01T04:52:49.168Z,86.03
2023-04-01T04:53:55.856Z,83.88
2023-04-01T04:55:01.126Z,85.72
2023-04-01T04:56:07.817Z,86.88
2023-04-01T04:57:13.144Z,85.35
2023-04-01T04:58:21.591Z,87.32
2023-04-01T04:59:26.914Z,90.05
2023-04-01T05:00:33.556Z,88.72
2023-04-01T05:01:38.943Z,88.20
2023-04-01T05:02:45.770Z,89.03
2023-04-01T05:03:52.417Z,89.00
2023-04-01T05:04:57.729Z,86.15
2023-04-01T05:06:04.293Z,87.80
2023-04-01T05:07:09.628Z,89.22
2023-04-01T05:08:16.266Z,86.05
2023-04-01T05:09:21.633Z,88.63
2023-04-01T05:10:28.292Z,90.80
2023-04-01T05:11:33.589Z,90.85
2023-04-01T05:12:41.296Z,90.90
2023-04-01T05:13:50.147Z,88.93
2023-04-01T05:14:56.864Z,87.95
2023-04-01T05:16:03.512Z,89.53
2023-04-01T05:17:10.880Z,88.15
2023-04-01T05:18:17.886Z,91.13
2023-04-01T05:19:24.652Z,88.25
2023-04-01T05:20:30.063Z,89.35
2023-04-01T05:21:40.129Z,90.00
2023-04-01T05:22:45.570Z,87.63
2023-04-01T05:23:52.293Z,87.33
2023-04-01T05:24:57.688Z,87.50
2023-04-01T05:26:06.874Z,86.63
2023-04-01T05:27:12.245Z,87.13
2023-04-01T05:28:20.053Z,83.32
2023-04-01T05:29:27.398Z,85.15
2023-04-01T05:30:34.108Z,86.95
2023-04-01T05:31:39.469Z,82.43
2023-04-01T05:32:46.345Z,84.13
2023-04-01T05:33:53.246Z,85.78
2023-04-01T05:34:58.779Z,84.60
2023-04-01T05:36:12.003Z,84.87
2023-04-01T05:37:17.604Z,83.65
2023-04-01T05:38:24.303Z,86.43
2023-04-01T05:39:29.845Z,84.10
2023-04-01T05:40:37.394Z,86.63
2023-04-01T05:41:44.645Z,83.22
2023-04-01T05:42:50.033Z,85.97
2023-04-01T05:43:56.791Z,84.85
2023-04-01T05:45:03.921Z,85.57
2023-04-01T05:46:10.979Z,87.30
2023-04-01T05:47:16.493Z,86.73
2023-04-01T05:48:23.189Z,87.40
2023-04-01T05:49:29.025Z,88.95
2023-04-01T05:50:36.000Z,84.60
2023-04-01T05:51:41.366Z,82.63
2023-04-01T05:52:48.869Z,82.40
2023-04-01T05:53:54.280Z,85.28
2023-04-01T05:55:02.302Z,86.40
2023-04-01T05:56:08.214Z,83.97
2023-04-01T05:57:15.028Z,83.77
2023-04-01T05:58:20.403Z,82.00
2023-04-01T05:59:33.713Z,82.03
2023-04-01T06:00:43.841Z,83.72
2023-04-01T06:01:50.637Z,81.55
2023-04-01T06:02:56.078Z,79.40
2023-04-01T06:04:03.100Z,81.72
2023-04-01T06:05:17.416Z,79.15
2023-04-01T06:06:29.443Z,79.25
2023-04-01T06:07:34.862Z,79.50
2023-04-01T06:08:41.560Z,78.43
2023-04-01T06:09:47.554Z,76.97
2023-04-01T06:11:11.459Z,77.43
2023-04-01T06:12:33.554Z,74.53
2023-04-01T06:13:52.789Z,74.05
2023-04-01T06:15:10.152Z,71.90
2023-04-01T06:16:23.523Z,72.53
2023-04-01T06:17:39.254Z,72.05
2023-04-01T06:19:02.084Z,70.13
2023-04-01T06:20:12.603Z,69.68
2023-04-01T06:21:38.792Z,68.37
2023-04-01T06:22:56.414Z,66.30
2023-04-01T06:24:09.833Z,65.55
2023-04-01T06:25:36.958Z,61.85
2023-04-01T06:26:46.599Z,57.83
2023-04-01T06:28:04.508Z,58.38
2023-04-01T06:29:34.135Z,55.15
2023-04-01T06:30:45.558Z,54.13
2023-04-01T06:32:09.005Z,52.45
2023-04-01T06:33:31.387Z,51.15
2023-04-01T06:35:05.961Z,51.17
2023-04-01T06:36:37.491Z,51.03
2023-04-01T06:37:59.645Z,47.05
2023-04-01T06:39:30.967Z,47.65
2023-04-01T06:41:00.700Z,43.47
2023-04-01T06:42:34.596Z,43.40
2023-04-01T06:43:50.949Z,41.13
2023-04-01T06:45:03.645Z,43.30
2023-04-01T06:46:14.121Z,41.78
2023-04-01T06:47:32.335Z,40.83
2023-04-01T06:49:03.787Z,39.43
2023-04-01T06:50:15.441Z,37.90
2023-04-01T06:51:29.783Z,37.92
2023-04-01T06:52:41.197Z,38.85
2023-04-01T06:53:52.838Z,37.78
2023-04-01T06:55:05.813Z,34.28
2023-04-01T06:56:13.504Z,34.50
2023-04-01T06:57:26.758Z,34.03
2023-04-01T06:58:40.816Z,34.15
2023-04-01T06:59:47.783Z,31.73
2023-04-01T07:00:55.512Z,30.77
2023-04-01T07:02:04.861Z,30.07
2023-04-01T07:03:20.842Z,31.42
2023-04-01T07:04:31.344Z,32.47
2023-04-01T07:05:38.601Z,30.55
2023-04-01T07:06:49.110Z,31.58
2023-04-01T07:07:58.431Z,30.10
2023-04-01T07:09:06.361Z,30.75
2023-04-01T07:10:17.811Z,28.20
2023-04-01T07:11:29.464Z,28.80
2023-04-01T07:12:43.721Z,29.33
2023-04-01T07:13:54.268Z,27.67
2023-04-01T07:15:00.630Z,27.10
2023-04-01T07:16:16.869Z,27.75
2023-04-01T07:17:25.550Z,28.23
2023-04-01T07:18:39.745Z,27.88
2023-04-01T07:19:50.349Z,26.35
2023-04-01T07:20:56.096Z,28.25
2023-04-01T07:22:06.521Z,27.10
2023-04-01T07:23:20.396Z,27.48
2023-04-01T07:24:27.921Z,27.37
2023-04-01T07:25:36.261Z,28.70
2023-04-01T07:26:42.862Z,26.67
2023-04-01T07:27:48.610Z,26.25
2023-04-01T07:28:56.677Z,27.80
2023-04-01T07:30:02.820Z,26.48
2023-04-01T07:31:20.410Z,26.67
2023-04-01T07:32:33.288Z,26.77
2023-04-01T07:33:46.430Z,25.92
2023-04-01T07:35:10.790Z,25.80
2023-04-01T07:36:22.706Z,25.13
2023-04-01T07:37:33.879Z,24.27
2023-04-01T07:38:45.335Z,22.40
2023-04-01T07:39:57.019Z,23.40
2023-04-01T07:41:10.043Z,22.88
2023-04-01T07:42:23.865Z,22.05
2023-04-01T07:43:47.081Z,22.05
2023-04-01T07:45:01.587Z,21.98
2023-04-01T07:46:14.946Z,21.42
2023-04-01T07:47:29.681Z,21.77
2023-04-01T07:48:40.231Z,22.13
2023-04-01T07:49:57.914Z,21.97
2023-04-01T07:51:05.707Z,21.40
2023-04-01T07:52:19.705Z,21.95
2023-04-01T07:53:30.420Z,20.58
2023-04-01T07:54:43.779Z,21.40
2023-04-01T07:55:52.721Z,20.05
2023-04-01T07:57:02.958Z,20.88
2023-04-01T07:58:11.683Z,21.45
2023-04-01T07:59:24.601Z,20.70
2023-04-01T08:00:33.869Z,20.57
2023-04-01T08:01:44.115Z,20.90
2023-04-01T08:03:20.653Z,18.90
2023-04-01T08:04:33.703Z,20.42
2023-04-01T08:06:51.501Z,20.33
2023-04-01T08:08:08.683Z,20.00
2023-04-01T08:09:24.262Z,19.33
2023-04-01T08:10:38.866Z,19.85
2023-04-01T08:12:01.065Z,19.15
2023-04-01T08:13:13.444Z,19.17
2023-04-01T08:14:25.078Z,19.13
2023-04-01T08:15:33.454Z,18.00
2023-04-01T08:16:44.554Z,19.98
2023-04-01T08:18:00.682Z,18.92
2023-04-01T08:19:14.685Z,19.27
2023-04-01T08:20:29.762Z,18.35
2023-04-01T08:21:39.926Z,18.23
2023-04-01T08:22:48.791Z,18.05
2023-04-01T08:23:57.705Z,16.85
2023-04-01T08:25:05.808Z,16.40
2023-04-01T08:26:15.628Z,17.43
2023-04-01T08:27:25.344Z,16.70
2023-04-01T08:28:37.119Z,16.90
2023-04-01T08:29:46.183Z,15.68
2023-04-01T08:30:54.728Z,16.75
2023-04-01T08:32:04.682Z,15.95
2023-04-01T08:33:14.743Z,16.05
2023-04-01T08:34:24.971Z,15.77
2023-04-01T08:35:37.649Z,15.20
2023-04-01T08:36:49.810Z,15.07
2023-04-01T08:37:58.878Z,15.37
2023-04-01T08:39:11.888Z,15.00
2023-04-01T08:40:38.995Z,15.75
2023-04-01T08:42:29.180Z,15.65
2023-04-01T08:43:57.222Z,15.15
2023-04-01T08:45:15.597Z,15.07
2023-04-01T08:46:50.499Z,15.40
2023-04-01T08:48:27.457Z,15.20
2023-04-01T08:49:48.841Z,14.93
2023-04-01T08:51:14.515Z,15.10
2023-04-01T08:52:45.709Z,15.43
2023-04-01T08:54:13.919Z,14.82
2023-04-01T08:55:58.492Z,15.05
2023-04-01T08:57:11.487Z,15.27
2023-04-01T08:59:02.208Z,15.02
2023-04-01T09:00:19.946Z,14.95
2023-04-01T09:01:38.409Z,15.18
2023-04-01T09:04:19.512Z,14.18
2023-04-01T09:06:01.287Z,14.70
2023-04-01T09:07:18.608Z,15.07
2023-04-01T09:08:35.185Z,16.15
2023-04-01T09:10:09.092Z,14.65
2023-04-01T09:11:25.874Z,14.82
2023-04-01T09:12:55.410Z,14.18
2023-04-01T09:14:30.508Z,16.70
2023-04-01T09:16:15.042Z,15.60
2023-04-01T09:17:53.385Z,14.90
2023-04-01T09:21:47.347Z,15.07
2023-04-01T09:23:24.116Z,14.02
2023-04-01T09:25:06.242Z,15.20
2023-04-01T09:26:33.296Z,14.70
2023-04-01T09:27:41.467Z,13.90
2023-04-01T09:28:52.529Z,13.80
2023-04-01T09:30:30.933Z,14.40
2023-04-01T09:32:11.106Z,15.05
2023-04-01T09:33:59.397Z,14.95
2023-04-01T09:35:13.072Z,14.23
2023-04-01T09:36:29.732Z,15.60
2023-04-01T09:37:53.730Z,15.50
2023-04-01T09:39:02.953Z,15.43
2023-04-01T09:40:22.775Z,14.88
2023-04-01T09:41:35.804Z,14.70
2023-04-01T09:42:48.946Z,14.73
2023-04-01T09:44:06.203Z,15.45
2023-04-01T09:45:17.480Z,14.80
2023-04-01T09:46:31.479Z,14.15
2023-04-01T09:47:50.644Z,13.50
2023-04-01T09:49:26.390Z,14.90
2023-04-01T09:50:38.106Z,14.90
2023-04-01T09:51:50.160Z,14.38
2023-04-01T09:53:03.641Z,15.10
2023-04-01T09:54:23.839Z,13.05
2023-04-01T09:55:56.381Z,13.82
2023-04-01T09:57:29.202Z,14.18
2023-04-01T09:58:57.552Z,13.35
2023-04-01T10:00:42.673Z,12.85
2023-04-01T10:43:52.265Z,15.57
2023-04-01T10:47:29.446Z,14.35
2023-04-01T10:49:20.033Z,14.98
2023-04-01T10:51:18.989Z,15.25
2023-04-01T10:53:00.491Z,15.05
2023-04-01T10:54:35.131Z,14.35
2023-04-01T10:56:10.302Z,15.38
2023-04-01T10:57:35.961Z,16.13
2023-04-01T10:59:09.883Z,15.90
2023-04-01T11:00:34.099Z,14.35
2023-04-01T11:02:15.238Z,14.55
2023-04-01T11:03:49.467Z,14.70
2023-04-01T11:05:25.331Z,15.45
2023-04-01T11:22:29.558Z,12.75
2023-04-01T11:24:04.909Z,12.25
2023-04-01T11:25:30.736Z,12.57
2023-04-01T11:26:51.400Z,13.68
2023-04-01T11:28:13.669Z,13.18
2023-04-01T11:43:01.657Z,12.80
2023-04-01T11:44:26.136Z,12.82
2023-04-01T11:45:43.131Z,13.45
2023-04-01T11:46:57.782Z,16.30
2023-04-01T11:48:28.513Z,17.00
2023-04-01T11:49:58.551Z,15.23
2023-04-01T11:51:22.452Z,14.52
2023-04-01T11:52:55.264Z,13.60
2023-04-01T11:54:09.045Z,13.48
2023-04-01T11:55:28.920Z,13.02
2023-04-01T11:56:54.846Z,13.07
2023-04-01T11:58:14.470Z,13.45
2023-04-01T11:59:56.480Z,13.50
2023-04-01T12:01:31.956Z,12.93
2023-04-01T12:02:49.305Z,12.85
2023-04-01T12:04:24.265Z,13.65
2023-04-01T12:05:40.857Z,13.48
2023-04-01T12:06:53.291Z,13.43
2023-04-01T12:08:19.149Z,13.60
2023-04-01T12:09:33.110Z,13.15
2023-04-01T12:10:44.235Z,13.38
2023-04-01T12:11:57.766Z,13.07
2023-04-01T12:13:11.445Z,13.48
2023-04-01T12:14:21.229Z,12.57
2023-04-01T12:15:33.770Z,13.17
2023-04-01T12:16:58.914Z,13.18
2023-04-01T12:18:13.972Z,13.70
2023-04-01T12:19:27.620Z,12.85
2023-04-01T12:20:48.873Z,13.38
2023-04-01T12:22:06.703Z,12.60
2023-04-01T12:23:22.503Z,13.25
2023-04-01T12:24:54.240Z,14.02
2023-04-01T20:17:06.130Z,21.00
2023-04-01T20:18:20.279Z,23.40
2023-04-01T20:19:39.583Z,24.45
2023-04-01T20:20:46.867Z,22.98
2023-04-01T20:21:53.700Z,23.63
2023-04-01T20:23:29.520Z,23.87
2023-04-01T20:24:39.772Z,22.02
2023-04-01T20:25:50.855Z,21.63
2023-04-01T20:27:03.485Z,21.48
2023-04-01T20:28:16.276Z,22.45
2023-04-01T20:29:41.481Z,22.15
2023-04-01T20:31:12.908Z,23.42
2023-04-01T20:32:45.941Z,23.60
2023-04-01T20:34:25.364Z,23.40
2023-04-01T20:35:40.483Z,23.48
2023-04-01T20:36:55.053Z,22.27
2023-04-01T20:38:16.735Z,21.23
2023-04-01T20:39:59.099Z,24.25
2023-04-01T20:41:09.784Z,25.13
2023-04-01T20:42:39.821Z,25.67
2023-04-01T20:44:01.845Z,23.00
2023-04-01T20:45:33.332Z,24.08
2023-04-01T20:46:47.966Z,23.75
2023-04-01T20:48:06.776Z,25.67
2023-04-01T20:49:46.627Z,24.50
2023-04-01T20:50:54.623Z,24.33
2023-04-01T20:52:09.897Z,23.55
2023-04-01T20:53:19.134Z,23.27
2023-04-01T20:54:36.540Z,24.52
2023-04-01T20:56:15.216Z,23.58
2023-04-01T20:57:25.565Z,22.52
2023-04-01T20:58:35.395Z,24.55
2023-04-01T20:59:54.210Z,22.40
2023-04-01T21:01:06.423Z,25.27
2023-04-01T21:02:24.807Z,24.80
2023-04-01T21:03:39.623Z,25.20
2023-04-01T21:05:05.042Z,26.58
2023-04-01T21:06:36.336Z,25.65
2023-04-01T21:07:45.334Z,25.63
2023-04-01T21:09:12.865Z,27.15
2023-04-01T21:10:44.681Z,26.25
2023-04-01T21:11:56.706Z,27.05
2023-04-01T21:13:13.033Z,27.33
2023-04-01T21:15:10.925Z,26.90
2023-04-01T21:16:28.780Z,27.65
2023-04-01T21:17:47.259Z,26.60
2023-04-01T21:19:08.877Z,26.50
2023-04-01T21:20:27.905Z,28.27
2023-04-01T21:22:09.854Z,27.40
2023-04-01T21:23:42.924Z,25.75
2023-04-01T21:25:00.041Z,26.40
2023-04-01T21:26:16.859Z,24.25
2023-04-01T21:27:34.565Z,24.05
2023-04-01T21:28:51.993Z,26.45
2023-04-01T21:30:03.385Z,25.48
2023-04-01T21:31:20.862Z,25.27
2023-04-01T21:32:46.283Z,25.40
2023-04-01T21:34:38.269Z,26.35
2023-04-01T21:35:53.326Z,25.95
2023-04-01T21:37:11.657Z,25.25
2023-04-01T21:38:37.032Z,24.23
2023-04-01T21:40:00.882Z,26.65
2023-04-01T21:41:28.631Z,26.30
2023-04-01T21:42:46.177Z,23.48
2023-04-01T21:44:21.225Z,22.08
2023-04-01T21:45:37.223Z,21.10
2023-04-01T21:47:06.650Z,22.60
2023-04-01T21:48:39.597Z,23.98
2023-04-01T21:49:55.302Z,26.65
2023-04-01T21:51:30.433Z,33.00
2023-04-01T21:52:56.832Z,31.98
2023-04-01T21:54:25.786Z,27.80
2023-04-01T22:14:07.105Z,26.90
2023-04-01T22:15:21.518Z,28.02
2023-04-01T22:16:35.165Z,28.35
2023-04-01T22:17:47.790Z,29.58
2023-04-01T22:19:01.947Z,29.23
2023-04-01T22:20:21.947Z,31.25
2023-04-01T22:21:31.855Z,31.52
2023-04-01T22:22:50.884Z,32.35
2023-04-01T22:24:06.172Z,31.73
2023-04-01T22:25:15.909Z,32.65
2023-04-01T22:26:29.271Z,31.63
2023-04-01T22:27:43.245Z,34.25
2023-04-01T22:28:57.464Z,34.15
2023-04-01T22:30:22.265Z,35.30
2023-04-01T22:31:32.808Z,35.70
2023-04-01T22:32:44.943Z,34.97
2023-04-01T22:33:57.725Z,33.17
2023-04-01T22:35:11.051Z,33.38
2023-04-01T22:36:26.765Z,30.58
2023-04-01T22:37:36.751Z,31.15
2023-04-01T22:38:58.455Z,30.33
2023-04-01T22:40:21.209Z,33.88
2023-04-01T22:41:35.450Z,32.85
2023-04-01T22:42:48.416Z,31.52
2023-04-01T22:43:59.952Z,31.07
2023-04-01T22:45:23.485Z,34.97
2023-04-01T22:46:46.373Z,32.03
2023-04-01T22:47:59.253Z,30.15
2023-04-01T22:49:12.373Z,33.35
2023-04-01T22:50:21.173Z,35.15
